sensor_id;sensor_type;location;lat;lon;timestamp;temperature;humidity
14144;DHT22;7152;48.348;10.980;2023-04-29T00:00:48;9.70;99.90
14144;DHT22;7152;48.348;10.980;2023-04-29T00:03:13;9.70;99.90
14144;DHT22;7152;48.348;10.980;2023-04-29T00:05:39;9.60;99.90
14144;DHT22;7152;48.348;10.980;2023-04-29T00:08:05;9.60;99.90
14144;DHT22;7152;48.348;10.980;2023-04-29T00:10:31;9.50;99.90
14144;DHT22;7152;48.348;10.980;2023-04-29T00:12:57;9.50;99.90
14144;DHT22;7152;48.348;10.980;2023-04-29T00:15:22;9.50;99.90
14144;DHT22;7152;48.348;10.980;2023-04-29T00:17:48;9.40;99.90
14144;DHT22;7152;48.348;10.980;2023-04-29T00:20:13;9.40;99.90
14144;DHT22;7152;48.348;10.980;2023-04-29T00:22:39;9.40;99.90
14144;DHT22;7152;48.348;10.980;2023-04-29T00:25:05;9.50;99.90
14144;DHT22;7152;48.348;10.980;2023-04-29T00:27:31;9.50;99.90
14144;DHT22;7152;48.348;10.980;2023-04-29T00:29:57;9.60;99.90
14144;DHT22;7152;48.348;10.980;2023-04-29T00:32:23;9.60;99.90
14144;DHT22;7152;48.348;10.980;2023-04-29T00:34:49;9.60;99.90
14144;DHT22;7152;48.348;10.980;2023-04-29T00:37:14;9.70;99.90
14144;DHT22;7152;48.348;10.980;2023-04-29T00:39:40;9.70;99.90
14144;DHT22;7152;48.348;10.980;2023-04-29T00:42:07;9.80;99.90
14144;DHT22;7152;48.348;10.980;2023-04-29T00:44:32;9.80;99.90
14144;DHT22;7152;48.348;10.980;2023-04-29T00:46:58;9.80;99.90
14144;DHT22;7152;48.348;10.980;2023-04-29T00:49:25;9.80;99.90
14144;DHT22;7152;48.348;10.980;2023-04-29T00:51:52;9.90;99.90
14144;DHT22;7152;48.348;10.980;2023-04-29T00:54:17;9.90;99.90
14144;DHT22;7152;48.348;10.980;2023-04-29T00:56:44;9.90;99.90
14144;DHT22;7152;48.348;10.980;2023-04-29T00:59:11;9.90;99.90
14144;DHT22;7152;48.348;10.980;2023-04-29T01:01:37;9.90;99.90
14144;DHT22;7152;48.348;10.980;2023-04-29T01:04:04;9.80;99.90
14144;DHT22;7152;48.348;10.980;2023-04-29T01:06:40;9.80;99.90
14144;DHT22;7152;48.348;10.980;2023-04-29T01:09:32;9.80;99.90
14144;DHT22;7152;48.348;10.980;2023-04-29T01:17:30;9.80;99.90
14144;DHT22;7152;48.348;10.980;2023-04-29T01:20:00;9.80;99.90
14144;DHT22;7152;48.348;10.980;2023-04-29T01:22:27;9.80;99.90
14144;DHT22;7152;48.348;10.980;2023-04-29T01:24:53;9.70;99.90
14144;DHT22;7152;48.348;10.980;2023-04-29T01:33:05;9.70;99.90
14144;DHT22;7152;48.348;10.980;2023-04-29T01:40:43;9.60;99.90
14144;DHT22;7152;48.348;10.980;2023-04-29T01:43:13;9.50;99.90
14144;DHT22;7152;48.348;10.980;2023-04-29T01:45:40;9.50;99.90
14144;DHT22;7152;48.348;10.980;2023-04-29T01:48:07;9.50;99.90
14144;DHT22;7152;48.348;10.980;2023-04-29T01:50:33;9.50;99.90
14144;DHT22;7152;48.348;10.980;2023-04-29T01:52:58;9.40;99.90
14144;DHT22;7152;48.348;10.980;2023-04-29T01:55:24;9.40;99.90
14144;DHT22;7152;48.348;10.980;2023-04-29T01:57:50;9.40;99.90
14144;DHT22;7152;48.348;10.980;2023-04-29T02:00:16;9.50;99.90
14144;DHT22;7152;48.348;10.980;2023-04-29T02:02:42;9.50;99.90
14144;DHT22;7152;48.348;10.980;2023-04-29T02:05:08;9.40;99.90
14144;DHT22;7152;48.348;10.980;2023-04-29T02:07:34;9.40;99.90
14144;DHT22;7152;48.348;10.980;2023-04-29T02:09:59;9.40;99.90
14144;DHT22;7152;48.348;10.980;2023-04-29T02:12:25;9.40;99.90
14144;DHT22;7152;48.348;10.980;2023-04-29T02:14:54;9.40;99.90
14144;DHT22;7152;48.348;10.980;2023-04-29T02:17:19;9.40;99.90
14144;DHT22;7152;48.348;10.980;2023-04-29T02:19:45;9.40;99.90
14144;DHT22;7152;48.348;10.980;2023-04-29T02:22:10;9.40;99.90
14144;DHT22;7152;48.348;10.980;2023-04-29T02:24:37;9.30;99.90
14144;DHT22;7152;48.348;10.980;2023-04-29T02:27:03;9.30;99.90
14144;DHT22;7152;48.348;10.980;2023-04-29T02:29:30;9.30;99.90
14144;DHT22;7152;48.348;10.980;2023-04-29T02:31:56;9.30;99.90
14144;DHT22;7152;48.348;10.980;2023-04-29T02:34:22;9.30;99.90
14144;DHT22;7152;48.348;10.980;2023-04-29T02:36:48;9.20;99.90
14144;DHT22;7152;48.348;10.980;2023-04-29T02:39:14;9.30;99.90
14144;DHT22;7152;48.348;10.980;2023-04-29T02:41:41;9.30;99.90
14144;DHT22;7152;48.348;10.980;2023-04-29T02:44:07;9.30;99.90
14144;DHT22;7152;48.348;10.980;2023-04-29T02:46:33;9.30;99.90
14144;DHT22;7152;48.348;10.980;2023-04-29T02:49:00;9.30;99.90
14144;DHT22;7152;48.348;10.980;2023-04-29T02:51:26;9.30;99.90
14144;DHT22;7152;48.348;10.980;2023-04-29T02:53:52;9.30;99.90
14144;DHT22;7152;48.348;10.980;2023-04-29T02:56:18;9.30;99.90
14144;DHT22;7152;48.348;10.980;2023-04-29T02:58:43;9.30;99.90
14144;DHT22;7152;48.348;10.980;2023-04-29T03:01:09;9.30;99.90
14144;DHT22;7152;48.348;10.980;2023-04-29T03:03:35;9.30;99.90
14144;DHT22;7152;48.348;10.980;2023-04-29T03:06:01;9.40;99.90
14144;DHT22;7152;48.348;10.980;2023-04-29T03:08:26;9.40;99.90
14144;DHT22;7152;48.348;10.980;2023-04-29T03:10:52;9.40;99.90
14144;DHT22;7152;48.348;10.980;2023-04-29T03:13:18;9.40;99.90
14144;DHT22;7152;48.348;10.980;2023-04-29T03:15:43;9.50;99.90
14144;DHT22;7152;48.348;10.980;2023-04-29T03:18:09;9.50;99.90
14144;DHT22;7152;48.348;10.980;2023-04-29T03:20:35;9.50;99.90
14144;DHT22;7152;48.348;10.980;2023-04-29T03:23:01;9.40;99.90
14144;DHT22;7152;48.348;10.980;2023-04-29T03:25:27;9.50;99.90
14144;DHT22;7152;48.348;10.980;2023-04-29T03:27:53;9.50;99.90
14144;DHT22;7152;48.348;10.980;2023-04-29T03:30:18;9.50;99.90
14144;DHT22;7152;48.348;10.980;2023-04-29T03:32:44;9.50;99.90
14144;DHT22;7152;48.348;10.980;2023-04-29T03:35:09;9.50;99.90
14144;DHT22;7152;48.348;10.980;2023-04-29T03:37:36;9.50;99.90
14144;DHT22;7152;48.348;10.980;2023-04-29T03:40:02;9.50;99.90
14144;DHT22;7152;48.348;10.980;2023-04-29T03:42:28;9.50;99.90
14144;DHT22;7152;48.348;10.980;2023-04-29T03:44:54;9.50;99.90
14144;DHT22;7152;48.348;10.980;2023-04-29T03:47:19;9.50;99.90
14144;DHT22;7152;48.348;10.980;2023-04-29T03:49:45;9.50;99.90
14144;DHT22;7152;48.348;10.980;2023-04-29T03:52:10;9.60;99.90
14144;DHT22;7152;48.348;10.980;2023-04-29T03:54:37;9.60;99.90
14144;DHT22;7152;48.348;10.980;2023-04-29T03:57:02;9.60;99.90
14144;DHT22;7152;48.348;10.980;2023-04-29T03:59:29;9.60;99.90
14144;DHT22;7152;48.348;10.980;2023-04-29T04:01:54;9.60;99.90
14144;DHT22;7152;48.348;10.980;2023-04-29T04:04:20;9.60;99.90
14144;DHT22;7152;48.348;10.980;2023-04-29T04:06:46;9.50;99.90
14144;DHT22;7152;48.348;10.980;2023-04-29T04:09:19;9.50;99.90
14144;DHT22;7152;48.348;10.980;2023-04-29T04:11:44;9.50;99.90
14144;DHT22;7152;48.348;10.980;2023-04-29T04:14:10;9.50;99.90
14144;DHT22;7152;48.348;10.980;2023-04-29T04:16:36;9.60;99.90
14144;DHT22;7152;48.348;10.980;2023-04-29T04:19:02;9.60;99.90
14144;DHT22;7152;48.348;10.980;2023-04-29T04:21:28;9.60;99.90
14144;DHT22;7152;48.348;10.980;2023-04-29T04:23:54;9.70;99.90
14144;DHT22;7152;48.348;10.980;2023-04-29T04:26:20;9.70;99.90
14144;DHT22;7152;48.348;10.980;2023-04-29T04:28:47;9.80;99.90
14144;DHT22;7152;48.348;10.980;2023-04-29T04:31:13;9.90;99.90
14144;DHT22;7152;48.348;10.980;2023-04-29T04:33:39;10.00;99.90
14144;DHT22;7152;48.348;10.980;2023-04-29T04:36:05;10.10;99.90
14144;DHT22;7152;48.348;10.980;2023-04-29T04:38:31;10.10;99.90
14144;DHT22;7152;48.348;10.980;2023-04-29T04:40:57;10.20;99.90
14144;DHT22;7152;48.348;10.980;2023-04-29T04:43:23;10.30;99.90
14144;DHT22;7152;48.348;10.980;2023-04-29T04:45:48;10.30;99.90
14144;DHT22;7152;48.348;10.980;2023-04-29T04:48:14;10.40;99.90
14144;DHT22;7152;48.348;10.980;2023-04-29T04:50:40;10.50;99.90
14144;DHT22;7152;48.348;10.980;2023-04-29T04:53:05;10.60;99.90
14144;DHT22;7152;48.348;10.980;2023-04-29T04:55:31;10.60;99.90
14144;DHT22;7152;48.348;10.980;2023-04-29T04:57:58;10.70;99.90
14144;DHT22;7152;48.348;10.980;2023-04-29T05:00:23;10.70;99.90
14144;DHT22;7152;48.348;10.980;2023-04-29T05:02:49;10.80;99.90
14144;DHT22;7152;48.348;10.980;2023-04-29T05:05:15;10.80;99.90
14144;DHT22;7152;48.348;10.980;2023-04-29T05:07:41;10.90;99.90
14144;DHT22;7152;48.348;10.980;2023-04-29T05:10:07;11.00;99.90
14144;DHT22;7152;48.348;10.980;2023-04-29T05:12:33;11.00;99.90
14144;DHT22;7152;48.348;10.980;2023-04-29T05:15:00;11.00;99.90
14144;DHT22;7152;48.348;10.980;2023-04-29T05:17:26;11.10;99.90
14144;DHT22;7152;48.348;10.980;2023-04-29T05:19:51;11.10;99.90
14144;DHT22;7152;48.348;10.980;2023-04-29T05:22:17;11.20;99.90
14144;DHT22;7152;48.348;10.980;2023-04-29T05:24:43;11.20;99.90
14144;DHT22;7152;48.348;10.980;2023-04-29T05:27:08;11.30;99.90
14144;DHT22;7152;48.348;10.980;2023-04-29T05:29:34;11.40;99.90
14144;DHT22;7152;48.348;10.980;2023-04-29T05:31:59;11.50;99.90
14144;DHT22;7152;48.348;10.980;2023-04-29T05:34:25;11.50;99.90
14144;DHT22;7152;48.348;10.980;2023-04-29T05:36:51;11.60;99.90
14144;DHT22;7152;48.348;10.980;2023-04-29T05:39:16;11.70;99.90
14144;DHT22;7152;48.348;10.980;2023-04-29T05:41:42;11.80;99.90
14144;DHT22;7152;48.348;10.980;2023-04-29T05:44:08;11.80;99.90
14144;DHT22;7152;48.348;10.980;2023-04-29T05:46:34;11.90;99.90
14144;DHT22;7152;48.348;10.980;2023-04-29T05:48:59;12.00;99.90
14144;DHT22;7152;48.348;10.980;2023-04-29T05:51:25;12.00;99.90
14144;DHT22;7152;48.348;10.980;2023-04-29T05:53:55;12.00;99.90
14144;DHT22;7152;48.348;10.980;2023-04-29T05:56:23;12.00;99.90
14144;DHT22;7152;48.348;10.980;2023-04-29T05:58:49;12.00;99.90
14144;DHT22;7152;48.348;10.980;2023-04-29T06:01:14;12.10;99.90
14144;DHT22;7152;48.348;10.980;2023-04-29T06:03:42;12.10;99.90
14144;DHT22;7152;48.348;10.980;2023-04-29T06:06:08;12.10;99.90
14144;DHT22;7152;48.348;10.980;2023-04-29T06:08:33;12.10;99.90
14144;DHT22;7152;48.348;10.980;2023-04-29T06:10:59;12.20;99.90
14144;DHT22;7152;48.348;10.980;2023-04-29T06:13:25;12.20;99.90
14144;DHT22;7152;48.348;10.980;2023-04-29T06:15:50;12.30;99.90
14144;DHT22;7152;48.348;10.980;2023-04-29T06:18:16;12.30;99.90
14144;DHT22;7152;48.348;10.980;2023-04-29T06:20:42;12.40;99.90
14144;DHT22;7152;48.348;10.980;2023-04-29T06:23:07;12.50;99.90
14144;DHT22;7152;48.348;10.980;2023-04-29T06:25:33;12.60;99.90
14144;DHT22;7152;48.348;10.980;2023-04-29T06:27:58;12.60;99.90
14144;DHT22;7152;48.348;10.980;2023-04-29T06:30:25;12.60;99.90
14144;DHT22;7152;48.348;10.980;2023-04-29T06:32:51;12.70;99.90
14144;DHT22;7152;48.348;10.980;2023-04-29T06:35:16;12.70;99.90
14144;DHT22;7152;48.348;10.980;2023-04-29T06:37:42;12.80;99.90
14144;DHT22;7152;48.348;10.980;2023-04-29T06:40:08;12.80;99.90
14144;DHT22;7152;48.348;10.980;2023-04-29T06:42:34;12.80;99.90
14144;DHT22;7152;48.348;10.980;2023-04-29T06:44:59;12.90;99.90
14144;DHT22;7152;48.348;10.980;2023-04-29T06:47:25;12.90;99.90
14144;DHT22;7152;48.348;10.980;2023-04-29T06:49:50;13.00;99.90
14144;DHT22;7152;48.348;10.980;2023-04-29T06:52:17;13.00;99.90
14144;DHT22;7152;48.348;10.980;2023-04-29T06:54:43;13.00;99.90
14144;DHT22;7152;48.348;10.980;2023-04-29T06:57:09;13.10;99.90
14144;DHT22;7152;48.348;10.980;2023-04-29T06:59:34;13.20;99.90
14144;DHT22;7152;48.348;10.980;2023-04-29T07:02:00;13.30;99.90
14144;DHT22;7152;48.348;10.980;2023-04-29T07:04:25;13.40;99.90
14144;DHT22;7152;48.348;10.980;2023-04-29T07:06:51;13.50;99.90
14144;DHT22;7152;48.348;10.980;2023-04-29T07:09:18;13.50;99.90
14144;DHT22;7152;48.348;10.980;2023-04-29T07:11:44;13.60;99.90
14144;DHT22;7152;48.348;10.980;2023-04-29T07:14:09;13.60;99.90
14144;DHT22;7152;48.348;10.980;2023-04-29T07:16:35;13.70;99.90
14144;DHT22;7152;48.348;10.980;2023-04-29T07:19:01;13.70;99.90
14144;DHT22;7152;48.348;10.980;2023-04-29T07:21:26;13.90;99.90
14144;DHT22;7152;48.348;10.980;2023-04-29T07:23:52;14.10;99.90
14144;DHT22;7152;48.348;10.980;2023-04-29T07:26:19;14.20;99.90
14144;DHT22;7152;48.348;10.980;2023-04-29T07:28:47;14.30;99.90
14144;DHT22;7152;48.348;10.980;2023-04-29T07:31:13;14.40;99.90
14144;DHT22;7152;48.348;10.980;2023-04-29T07:33:39;14.30;99.90
14144;DHT22;7152;48.348;10.980;2023-04-29T07:36:05;14.20;99.90
14144;DHT22;7152;48.348;10.980;2023-04-29T07:38:32;14.10;99.90
14144;DHT22;7152;48.348;10.980;2023-04-29T07:40:57;14.10;99.90
14144;DHT22;7152;48.348;10.980;2023-04-29T07:43:23;14.10;99.90
14144;DHT22;7152;48.348;10.980;2023-04-29T07:45:48;14.20;99.90
14144;DHT22;7152;48.348;10.980;2023-04-29T07:48:14;14.30;99.90
14144;DHT22;7152;48.348;10.980;2023-04-29T07:50:40;14.40;99.90
14144;DHT22;7152;48.348;10.980;2023-04-29T07:53:05;14.50;99.90
14144;DHT22;7152;48.348;10.980;2023-04-29T07:55:31;14.60;99.90
14144;DHT22;7152;48.348;10.980;2023-04-29T07:57:58;14.60;99.90
14144;DHT22;7152;48.348;10.980;2023-04-29T08:00:24;14.80;99.90
14144;DHT22;7152;48.348;10.980;2023-04-29T08:02:53;14.90;99.90
14144;DHT22;7152;48.348;10.980;2023-04-29T08:05:19;14.90;99.90
14144;DHT22;7152;48.348;10.980;2023-04-29T08:07:46;15.00;99.90
14144;DHT22;7152;48.348;10.980;2023-04-29T08:10:12;15.20;99.90
14144;DHT22;7152;48.348;10.980;2023-04-29T08:12:38;15.40;99.90
14144;DHT22;7152;48.348;10.980;2023-04-29T08:15:04;15.50;99.90
14144;DHT22;7152;48.348;10.980;2023-04-29T08:17:30;15.70;99.90
14144;DHT22;7152;48.348;10.980;2023-04-29T08:19:55;15.60;99.90
14144;DHT22;7152;48.348;10.980;2023-04-29T08:22:21;15.70;99.90
14144;DHT22;7152;48.348;10.980;2023-04-29T08:24:47;15.90;99.90
14144;DHT22;7152;48.348;10.980;2023-04-29T08:27:13;16.00;99.90
14144;DHT22;7152;48.348;10.980;2023-04-29T08:29:42;15.90;99.90
14144;DHT22;7152;48.348;10.980;2023-04-29T08:32:08;15.90;99.90
14144;DHT22;7152;48.348;10.980;2023-04-29T08:34:33;16.10;99.90
14144;DHT22;7152;48.348;10.980;2023-04-29T08:37:02;16.00;99.90
14144;DHT22;7152;48.348;10.980;2023-04-29T08:39:28;16.20;99.90
14144;DHT22;7152;48.348;10.980;2023-04-29T08:41:57;16.30;99.90
14144;DHT22;7152;48.348;10.980;2023-04-29T08:44:25;16.30;99.90
14144;DHT22;7152;48.348;10.980;2023-04-29T08:46:52;16.30;99.90
14144;DHT22;7152;48.348;10.980;2023-04-29T08:49:18;16.50;99.90
14144;DHT22;7152;48.348;10.980;2023-04-29T08:51:44;16.80;99.90
14144;DHT22;7152;48.348;10.980;2023-04-29T08:54:12;17.00;99.90
14144;DHT22;7152;48.348;10.980;2023-04-29T08:56:38;16.80;99.90
14144;DHT22;7152;48.348;10.980;2023-04-29T08:59:03;16.60;99.90
14144;DHT22;7152;48.348;10.980;2023-04-29T09:01:31;16.30;99.90
14144;DHT22;7152;48.348;10.980;2023-04-29T09:04:21;16.30;99.90
14144;DHT22;7152;48.348;10.980;2023-04-29T09:06:48;16.10;99.90
14144;DHT22;7152;48.348;10.980;2023-04-29T09:09:14;16.10;99.90
14144;DHT22;7152;48.348;10.980;2023-04-29T09:11:40;16.20;99.90
14144;DHT22;7152;48.348;10.980;2023-04-29T09:14:05;16.40;99.90
14144;DHT22;7152;48.348;10.980;2023-04-29T09:16:32;16.50;99.90
14144;DHT22;7152;48.348;10.980;2023-04-29T09:18:59;16.40;99.90
14144;DHT22;7152;48.348;10.980;2023-04-29T09:21:29;16.60;99.90
14144;DHT22;7152;48.348;10.980;2023-04-29T09:23:59;16.80;99.90
14144;DHT22;7152;48.348;10.980;2023-04-29T09:26:26;17.20;99.90
14144;DHT22;7152;48.348;10.980;2023-04-29T09:29:14;17.60;99.90
14144;DHT22;7152;48.348;10.980;2023-04-29T09:31:41;17.70;99.90
14144;DHT22;7152;48.348;10.980;2023-04-29T09:34:07;17.40;99.90
14144;DHT22;7152;48.348;10.980;2023-04-29T09:39:03;16.80;99.90
14144;DHT22;7152;48.348;10.980;2023-04-29T09:41:30;16.90;99.90
14144;DHT22;7152;48.348;10.980;2023-04-29T09:44:06;16.70;99.90
14144;DHT22;7152;48.348;10.980;2023-04-29T09:46:35;17.00;99.90
14144;DHT22;7152;48.348;10.980;2023-04-29T09:49:21;17.10;99.90
14144;DHT22;7152;48.348;10.980;2023-04-29T09:51:55;17.00;99.90
14144;DHT22;7152;48.348;10.980;2023-04-29T09:54:28;17.20;99.90
14144;DHT22;7152;48.348;10.980;2023-04-29T09:56:56;17.30;99.90
14144;DHT22;7152;48.348;10.980;2023-04-29T09:59:23;17.60;99.90
14144;DHT22;7152;48.348;10.980;2023-04-29T10:01:51;18.00;99.90
14144;DHT22;7152;48.348;10.980;2023-04-29T10:04:18;18.50;99.90
14144;DHT22;7152;48.348;10.980;2023-04-29T10:06:47;18.50;99.90
14144;DHT22;7152;48.348;10.980;2023-04-29T10:09:14;18.20;99.90
14144;DHT22;7152;48.348;10.980;2023-04-29T10:11:47;17.80;99.90
14144;DHT22;7152;48.348;10.980;2023-04-29T10:14:15;17.70;99.90
14144;DHT22;7152;48.348;10.980;2023-04-29T10:16:47;17.90;99.90
14144;DHT22;7152;48.348;10.980;2023-04-29T10:19:42;18.10;99.90
14144;DHT22;7152;48.348;10.980;2023-04-29T10:22:21;18.30;99.90
14144;DHT22;7152;48.348;10.980;2023-04-29T10:24:52;18.30;99.90
14144;DHT22;7152;48.348;10.980;2023-04-29T10:27:19;18.40;99.90
14144;DHT22;7152;48.348;10.980;2023-04-29T10:29:47;18.30;99.90
14144;DHT22;7152;48.348;10.980;2023-04-29T10:32:13;18.60;99.90
14144;DHT22;7152;48.348;10.980;2023-04-29T10:34:40;19.00;99.90
14144;DHT22;7152;48.348;10.980;2023-04-29T10:37:11;19.20;99.90
14144;DHT22;7152;48.348;10.980;2023-04-29T10:39:59;19.20;99.90
14144;DHT22;7152;48.348;10.980;2023-04-29T10:42:41;19.40;99.90
14144;DHT22;7152;48.348;10.980;2023-04-29T10:53:19;19.40;99.90
14144;DHT22;7152;48.348;10.980;2023-04-29T10:55:53;19.90;99.90
14144;DHT22;7152;48.348;10.980;2023-04-29T11:01:04;20.10;99.90
14144;DHT22;7152;48.348;10.980;2023-04-29T11:06:15;20.20;99.90
14144;DHT22;7152;48.348;10.980;2023-04-29T11:08:41;20.20;99.90
14144;DHT22;7152;48.348;10.980;2023-04-29T11:11:12;19.70;99.90
14144;DHT22;7152;48.348;10.980;2023-04-29T11:13:39;19.50;99.90
14144;DHT22;7152;48.348;10.980;2023-04-29T11:16:09;19.70;99.90
14144;DHT22;7152;48.348;10.980;2023-04-29T11:18:36;20.20;99.90
14144;DHT22;7152;48.348;10.980;2023-04-29T11:21:21;20.40;99.90
14144;DHT22;7152;48.348;10.980;2023-04-29T11:23:47;20.10;99.90
14144;DHT22;7152;48.348;10.980;2023-04-29T11:26:18;19.80;99.90
14144;DHT22;7152;48.348;10.980;2023-04-29T11:28:44;19.50;99.90
14144;DHT22;7152;48.348;10.980;2023-04-29T11:31:10;20.10;99.90
14144;DHT22;7152;48.348;10.980;2023-04-29T11:33:36;20.30;99.90
14144;DHT22;7152;48.348;10.980;2023-04-29T11:36:02;20.80;99.90
14144;DHT22;7152;48.348;10.980;2023-04-29T11:38:29;21.10;99.90
14144;DHT22;7152;48.348;10.980;2023-04-29T11:40:56;21.10;99.90
14144;DHT22;7152;48.348;10.980;2023-04-29T11:43:23;20.90;99.90
14144;DHT22;7152;48.348;10.980;2023-04-29T11:45:50;20.90;99.90
14144;DHT22;7152;48.348;10.980;2023-04-29T11:48:22;21.20;99.90
14144;DHT22;7152;48.348;10.980;2023-04-29T11:50:57;21.50;99.90
14144;DHT22;7152;48.348;10.980;2023-04-29T11:53:24;21.00;99.90
14144;DHT22;7152;48.348;10.980;2023-04-29T11:55:54;20.90;99.90
14144;DHT22;7152;48.348;10.980;2023-04-29T11:58:21;21.70;99.90
14144;DHT22;7152;48.348;10.980;2023-04-29T12:00:47;22.30;99.90
14144;DHT22;7152;48.348;10.980;2023-04-29T12:03:13;23.00;99.90
14144;DHT22;7152;48.348;10.980;2023-04-29T12:05:46;23.20;99.90
14144;DHT22;7152;48.348;10.980;2023-04-29T12:08:12;22.30;99.90
14144;DHT22;7152;48.348;10.980;2023-04-29T12:10:38;22.60;99.90
14144;DHT22;7152;48.348;10.980;2023-04-29T12:13:03;23.20;99.90
14144;DHT22;7152;48.348;10.980;2023-04-29T12:15:30;23.50;99.90
14144;DHT22;7152;48.348;10.980;2023-04-29T12:17:57;23.40;99.90
14144;DHT22;7152;48.348;10.980;2023-04-29T12:20:24;23.70;99.90
14144;DHT22;7152;48.348;10.980;2023-04-29T12:22:51;23.70;99.90
14144;DHT22;7152;48.348;10.980;2023-04-29T12:25:17;23.40;99.90
14144;DHT22;7152;48.348;10.980;2023-04-29T12:27:43;23.30;99.90
14144;DHT22;7152;48.348;10.980;2023-04-29T12:30:09;23.40;99.90
14144;DHT22;7152;48.348;10.980;2023-04-29T12:32:35;22.60;99.90
14144;DHT22;7152;48.348;10.980;2023-04-29T12:35:01;23.00;99.90
14144;DHT22;7152;48.348;10.980;2023-04-29T12:37:27;23.20;99.90
14144;DHT22;7152;48.348;10.980;2023-04-29T12:39:54;22.50;99.90
14144;DHT22;7152;48.348;10.980;2023-04-29T12:42:20;21.90;99.90
14144;DHT22;7152;48.348;10.980;2023-04-29T12:44:48;22.10;99.90
14144;DHT22;7152;48.348;10.980;2023-04-29T12:47:15;22.40;99.90
14144;DHT22;7152;48.348;10.980;2023-04-29T12:49:42;22.60;99.90
14144;DHT22;7152;48.348;10.980;2023-04-29T12:52:08;22.70;99.90
14144;DHT22;7152;48.348;10.980;2023-04-29T12:54:38;23.20;99.90
14144;DHT22;7152;48.348;10.980;2023-04-29T12:57:06;23.90;99.90
14144;DHT22;7152;48.348;10.980;2023-04-29T12:59:32;23.20;99.90
14144;DHT22;7152;48.348;10.980;2023-04-29T13:01:58;23.50;99.90
14144;DHT22;7152;48.348;10.980;2023-04-29T13:04:23;23.80;99.90
14144;DHT22;7152;48.348;10.980;2023-04-29T13:06:49;24.40;99.90
14144;DHT22;7152;48.348;10.980;2023-04-29T13:09:18;23.90;99.90
14144;DHT22;7152;48.348;10.980;2023-04-29T13:11:44;23.00;99.90
14144;DHT22;7152;48.348;10.980;2023-04-29T13:14:10;22.50;99.90
14144;DHT22;7152;48.348;10.980;2023-04-29T13:16:36;22.50;99.90
14144;DHT22;7152;48.348;10.980;2023-04-29T13:19:02;23.40;99.90
14144;DHT22;7152;48.348;10.980;2023-04-29T13:21:27;23.40;99.90
14144;DHT22;7152;48.348;10.980;2023-04-29T13:23:54;22.60;99.90
14144;DHT22;7152;48.348;10.980;2023-04-29T13:26:19;22.30;99.90
14144;DHT22;7152;48.348;10.980;2023-04-29T13:28:45;22.90;99.90
14144;DHT22;7152;48.348;10.980;2023-04-29T13:31:11;23.00;99.90
14144;DHT22;7152;48.348;10.980;2023-04-29T13:33:36;23.90;99.90
14144;DHT22;7152;48.348;10.980;2023-04-29T13:36:02;24.30;99.90
14144;DHT22;7152;48.348;10.980;2023-04-29T13:38:28;24.50;99.90
14144;DHT22;7152;48.348;10.980;2023-04-29T13:40:53;25.00;99.40
14144;DHT22;7152;48.348;10.980;2023-04-29T13:43:19;25.30;98.40
14144;DHT22;7152;48.348;10.980;2023-04-29T13:45:45;25.10;97.80
14144;DHT22;7152;48.348;10.980;2023-04-29T13:48:10;25.40;97.50
14144;DHT22;7152;48.348;10.980;2023-04-29T13:50:36;25.10;96.90
14144;DHT22;7152;48.348;10.980;2023-04-29T13:53:02;25.40;96.80
14144;DHT22;7152;48.348;10.980;2023-04-29T13:55:27;24.70;96.90
14144;DHT22;7152;48.348;10.980;2023-04-29T13:57:54;23.90;97.20
14144;DHT22;7152;48.348;10.980;2023-04-29T14:00:19;23.70;98.00
14144;DHT22;7152;48.348;10.980;2023-04-29T14:02:45;23.40;98.30
14144;DHT22;7152;48.348;10.980;2023-04-29T14:05:11;23.30;98.50
14144;DHT22;7152;48.348;10.980;2023-04-29T14:07:37;24.50;99.30
14144;DHT22;7152;48.348;10.980;2023-04-29T14:10:03;23.90;98.00
14144;DHT22;7152;48.348;10.980;2023-04-29T14:12:29;23.40;98.00
14144;DHT22;7152;48.348;10.980;2023-04-29T14:14:55;23.00;98.30
14144;DHT22;7152;48.348;10.980;2023-04-29T14:17:21;23.70;98.80
14144;DHT22;7152;48.348;10.980;2023-04-29T14:19:47;22.90;98.90
14144;DHT22;7152;48.348;10.980;2023-04-29T14:22:13;22.50;99.30
14144;DHT22;7152;48.348;10.980;2023-04-29T14:24:38;22.60;99.70
14144;DHT22;7152;48.348;10.980;2023-04-29T14:27:04;22.70;99.90
14144;DHT22;7152;48.348;10.980;2023-04-29T14:29:29;22.70;99.90
14144;DHT22;7152;48.348;10.980;2023-04-29T14:31:55;22.50;99.90
14144;DHT22;7152;48.348;10.980;2023-04-29T14:34:22;21.80;99.60
14144;DHT22;7152;48.348;10.980;2023-04-29T14:36:47;21.40;99.90
14144;DHT22;7152;48.348;10.980;2023-04-29T14:39:13;21.60;99.90
14144;DHT22;7152;48.348;10.980;2023-04-29T14:41:39;21.40;99.90
14144;DHT22;7152;48.348;10.980;2023-04-29T14:44:04;21.00;99.90
14144;DHT22;7152;48.348;10.980;2023-04-29T14:46:31;20.70;99.90
14144;DHT22;7152;48.348;10.980;2023-04-29T14:48:56;21.80;99.90
14144;DHT22;7152;48.348;10.980;2023-04-29T14:51:22;21.80;99.90
14144;DHT22;7152;48.348;10.980;2023-04-29T14:53:47;22.50;99.90
14144;DHT22;7152;48.348;10.980;2023-04-29T14:56:15;23.00;99.90
14144;DHT22;7152;48.348;10.980;2023-04-29T14:58:42;22.60;99.90
14144;DHT22;7152;48.348;10.980;2023-04-29T15:01:07;22.40;99.90
14144;DHT22;7152;48.348;10.980;2023-04-29T15:03:33;22.40;99.90
14144;DHT22;7152;48.348;10.980;2023-04-29T15:06:00;23.00;99.90
14144;DHT22;7152;48.348;10.980;2023-04-29T15:08:28;22.60;99.80
14144;DHT22;7152;48.348;10.980;2023-04-29T15:10:53;22.10;99.90
14144;DHT22;7152;48.348;10.980;2023-04-29T15:13:19;21.60;99.90
14144;DHT22;7152;48.348;10.980;2023-04-29T15:15:45;21.30;99.90
14144;DHT22;7152;48.348;10.980;2023-04-29T15:18:10;22.40;99.90
14144;DHT22;7152;48.348;10.980;2023-04-29T15:20:36;23.30;99.90
14144;DHT22;7152;48.348;10.980;2023-04-29T15:23:03;24.00;99.90
14144;DHT22;7152;48.348;10.980;2023-04-29T15:25:29;23.70;99.80
14144;DHT22;7152;48.348;10.980;2023-04-29T15:27:55;23.50;99.60
14144;DHT22;7152;48.348;10.980;2023-04-29T15:30:24;23.90;99.60
14144;DHT22;7152;48.348;10.980;2023-04-29T15:32:49;24.10;99.40
14144;DHT22;7152;48.348;10.980;2023-04-29T15:35:15;24.20;99.00
14144;DHT22;7152;48.348;10.980;2023-04-29T15:37:40;24.50;98.50
14144;DHT22;7152;48.348;10.980;2023-04-29T15:40:07;24.20;98.40
14144;DHT22;7152;48.348;10.980;2023-04-29T15:42:32;23.60;98.30
14144;DHT22;7152;48.348;10.980;2023-04-29T15:44:58;23.70;98.20
14144;DHT22;7152;48.348;10.980;2023-04-29T15:47:24;23.40;98.00
14144;DHT22;7152;48.348;10.980;2023-04-29T15:49:49;23.70;98.20
14144;DHT22;7152;48.348;10.980;2023-04-29T15:52:16;23.90;98.20
14144;DHT22;7152;48.348;10.980;2023-04-29T15:54:41;24.40;98.30
14144;DHT22;7152;48.348;10.980;2023-04-29T15:57:07;24.40;97.60
14144;DHT22;7152;48.348;10.980;2023-04-29T15:59:33;24.30;97.60
14144;DHT22;7152;48.348;10.980;2023-04-29T16:01:58;24.20;97.40
14144;DHT22;7152;48.348;10.980;2023-04-29T16:04:24;23.90;97.70